Map

Track Data

SID SEASON NUMBER BASIN SUBBASIN NAME ISO_TIME NATURE LAT LON WMO_WIND WMO_PRES WMO_AGENCY TRACK_TYPE DIST2LAND LANDFALL IFLAG USA_AGENCY USA_ATCF_ID USA_LAT USA_LON USA_RECORD USA_STATUS USA_WIND USA_PRES USA_SSHS USA_R34_NE USA_R34_SE USA_R34_SW USA_R34_NW USA_R50_NE USA_R50_SE USA_R50_SW USA_R50_NW USA_R64_NE USA_R64_SE USA_R64_SW USA_R64_NW USA_POCI USA_ROCI USA_RMW USA_EYE TOKYO_LAT TOKYO_LON TOKYO_GRADE TOKYO_WIND TOKYO_PRES TOKYO_R50_DIR TOKYO_R50_LONG TOKYO_R50_SHORT TOKYO_R30_DIR TOKYO_R30_LONG TOKYO_R30_SHORT TOKYO_LAND CMA_LAT CMA_LON CMA_CAT CMA_WIND CMA_PRES HKO_LAT HKO_LON HKO_CAT HKO_WIND HKO_PRES NEWDELHI_LAT NEWDELHI_LON NEWDELHI_GRADE NEWDELHI_WIND NEWDELHI_PRES NEWDELHI_CI NEWDELHI_DP NEWDELHI_POCI REUNION_LAT REUNION_LON REUNION_TYPE REUNION_WIND REUNION_PRES REUNION_TNUM REUNION_CI REUNION_RMW REUNION_R34_NE REUNION_R34_SE REUNION_R34_SW REUNION_R34_NW REUNION_R50_NE REUNION_R50_SE REUNION_R50_SW REUNION_R50_NW REUNION_R64_NE REUNION_R64_SE REUNION_R64_SW REUNION_R64_NW BOM_LAT BOM_LON BOM_TYPE BOM_WIND BOM_PRES BOM_TNUM BOM_CI BOM_RMW BOM_R34_NE BOM_R34_SE BOM_R34_SW BOM_R34_NW BOM_R50_NE BOM_R50_SE BOM_R50_SW BOM_R50_NW BOM_R64_NE BOM_R64_SE BOM_R64_SW BOM_R64_NW BOM_ROCI BOM_POCI BOM_EYE BOM_POS_METHOD BOM_PRES_METHOD NADI_LAT NADI_LON NADI_CAT NADI_WIND NADI_PRES WELLINGTON_LAT WELLINGTON_LON WELLINGTON_WIND WELLINGTON_PRES DS824_LAT DS824_LON DS824_STAGE DS824_WIND DS824_PRES TD9636_LAT TD9636_LON TD9636_STAGE TD9636_WIND TD9636_PRES TD9635_LAT TD9635_LON TD9635_WIND TD9635_PRES TD9635_ROCI NEUMANN_LAT NEUMANN_LON NEUMANN_CLASS NEUMANN_WIND NEUMANN_PRES MLC_LAT MLC_LON MLC_CLASS MLC_WIND MLC_PRES USA_GUST BOM_GUST BOM_GUST_PER REUNION_GUST REUNION_GUST_PER USA_SEAHGT USA_SEARAD_NE USA_SEARAD_SE USA_SEARAD_SW USA_SEARAD_NW STORM_SPEED STORM_DIR
2020034S13062 2020 8 SI MM FRANCISCO 2020-02-03 06:00:00 NR -12.9000 62.4000 main 948 941 O_____________ jtwc_sh SH132020 -12.9000 62.4000 DB 20 1007 -3 1006 155 50 17 125
2020034S13062 2020 8 SI MM FRANCISCO 2020-02-03 09:00:00 NR -13.3981 63.1166 main 944 942 P_____________ SH132020 -13.3981 63.1166 DB 22 1006 -3 1006 155 50 16 125
2020034S13062 2020 8 SI MM FRANCISCO 2020-02-03 12:00:00 TS -13.8000 63.7000 main 950 948 O_____________ jtwc_sh SH132020 -13.8000 63.7000 TD 25 1005 -1 1006 155 50 11 125
2020034S13062 2020 8 SI MM FRANCISCO 2020-02-03 15:00:00 TS -14.0447 64.0604 main 963 955 P_____________ SH132020 -14.0447 64.0604 TD 25 1005 -1 1007 155 50 7 125
2020034S13062 2020 8 SI MM FRANCISCO 2020-02-03 18:00:00 TS -14.2000 64.3000 main 962 962 O_____________ jtwc_sh SH132020 -14.2000 64.3000 TD 25 1005 -1 1008 155 50 6 123
2020034S13062 2020 8 SI MM FRANCISCO 2020-02-03 21:00:00 TS -14.3650 64.5725 main 971 971 P_____________ SH132020 -14.3650 64.5725 TD 25 1004 -1 1007 162 50 6 122
2020034S13062 2020 8 SI MM FRANCISCO 2020-02-04 00:00:00 TS -14.5000 64.8000 main 980 980 O_____________ jtwc_sh SH132020 -14.5000 64.8000 TD 25 1004 -1 1006 170 50 4 121
2020034S13062 2020 8 SI MM FRANCISCO 2020-02-04 03:00:00 TS -14.5924 64.9576 main 989 982 P_____________ SH132020 -14.5924 64.9576 TD 25 1003 -1 1006 170 50 4 124
2020034S13062 2020 8 SI MM FRANCISCO 2020-02-04 06:00:00 TS -14.7000 65.1000 main 990 985 O_____________ jtwc_sh SH132020 -14.7000 65.1000 TD 25 1003 -1 1007 170 50 4 133
2020034S13062 2020 8 SI MM FRANCISCO 2020-02-04 09:00:00 TS -14.8624 65.2552 main 993 987 P_____________ SH132020 -14.8624 65.2552 TD 27 1002 -1 1007 170 47 6 136
2020034S13062 2020 8 SI MM FRANCISCO 2020-02-04 12:00:00 TS -15.1000 65.5000 main 998 998 O_____________ jtwc_sh SH132020 -15.1000 65.5000 TD 30 1002 -1 1007 170 45 9 132
2020034S13062 2020 8 SI MM FRANCISCO 2020-02-04 15:00:00 TS -15.4351 65.9198 main 1015 1009 P_____________ SH132020 -15.4351 65.9198 TD 32 1002 -1 1006 170 37 11 129
2020034S13062 2020 8 SI MM FRANCISCO 2020-02-04 18:00:00 TS -15.8000 66.4000 main 1038 1038 O_____________ jtwc_sh SH132020 -15.8000 66.4000 TS 35 1002 0 60 30 1006 170 30 11 129
2020034S13062 2020 8 SI MM FRANCISCO 2020-02-04 21:00:00 TS -16.1148 66.7927 main 1060 1060 P_____________ SH132020 -16.1148 66.7927 TS 37 1000 0 65 35 1005 172 30 10 128
2020034S13062 2020 8 SI MM FRANCISCO 2020-02-05 00:00:00 TS -16.4000 67.2000 main 1083 1083 O_____________ jtwc_sh SH132020 -16.4000 67.2000 TS 40 998 0 70 40 1004 175 30 10 123
2020034S13062 2020 8 SI MM FRANCISCO 2020-02-05 03:00:00 TS -16.6649 67.6701 main 1118 1118 P_____________ SH132020 -16.6649 67.6701 TS 42 995 0 97 90 1004 175 30 11 118
2020034S13062 2020 8 SI MM FRANCISCO 2020-02-05 06:00:00 TS -16.9000 68.2000 main 1159 1159 O_____________ jtwc_sh SH132020 -16.9000 68.2000 TS 45 993 0 125 140 135 150 1005 175 30 12 113
2020034S13062 2020 8 SI MM FRANCISCO 2020-02-05 09:00:00 TS -17.1225 68.7925 main 1212 1212 P_____________ SH132020 -17.1225 68.7925 TS 45 993 0 130 150 107 127 1005 175 27 12 109
2020034S13062 2020 8 SI MM FRANCISCO 2020-02-05 12:00:00 TS -17.3000 69.4000 main 1266 1266 O_____________ jtwc_sh SH132020 -17.3000 69.4000 TS 45 994 0 135 160 80 105 1005 175 25 12 103
2020034S13062 2020 8 SI MM FRANCISCO 2020-02-05 15:00:00 TS -17.3849 69.9729 main 1323 1323 P_____________ SH132020 -17.3849 69.9729 TS 40 996 0 115 165 100 87 1004 172 32 11 101
2020034S13062 2020 8 SI MM FRANCISCO 2020-02-05 18:00:00 TS -17.5000 70.5000 main 1371 1371 O_____________ jtwc_sh SH132020 -17.5000 70.5000 TS 35 998 0 95 170 120 70 1004 170 40 11 111
2020034S13062 2020 8 SI MM FRANCISCO 2020-02-05 21:00:00 TS -17.7550 71.0023 main 1414 1414 P_____________ SH132020 -17.7550 71.0023 TS 35 998 0 112 167 97 85 1004 170 45 10 125
2020034S13062 2020 8 SI MM FRANCISCO 2020-02-06 00:00:00 TS -18.1000 71.4000 main 1448 1448 O_____________ jtwc_sh SH132020 -18.1000 71.4000 TS 35 998 0 130 165 75 100 1004 170 50 10 139
2020034S13062 2020 8 SI MM FRANCISCO 2020-02-06 03:00:00 TS -18.4924 71.6675 main 1471 1467 P_____________ SH132020 -18.4924 71.6675 TS 32 1000 -1 1005 177 50 9 155
2020034S13062 2020 8 SI MM FRANCISCO 2020-02-06 06:00:00 TS -18.9000 71.8000 main 1474 1469 O_____________ jtwc_sh SH132020 -18.9000 71.8000 TD 30 1002 -1 1007 185 50 8 168
2020034S13062 2020 8 SI MM FRANCISCO 2020-02-06 09:00:00 TS -19.2649 71.8451 main 1468 1464 P_____________ SH132020 -19.2649 71.8451 TD 27 1002 -1 1006 177 50 7 0
2020034S13062 2020 8 SI MM FRANCISCO 2020-02-06 12:00:00 TS -19.6000 71.8000 main 1464 1451 O_____________ jtwc_sh SH132020 -19.6000 71.8000 TD 25 1003 -1 1005 170 50 7 190
2020034S13062 2020 8 SI MM FRANCISCO 2020-02-06 15:00:00 TS -19.9375 71.7226 main 1451 1439 P_____________ SH132020 -19.9375 71.7226 TD 25 1003 -1 1005 170 50 6 198
2020034S13062 2020 8 SI MM FRANCISCO 2020-02-06 18:00:00 TS -20.2000 71.6000 main 1439 1428 O_____________ jtwc_sh SH132020 -20.2000 71.6000 TD 25 1003 -1 1005 170 50 5 208
2020034S13062 2020 8 SI MM FRANCISCO 2020-02-06 21:00:00 TS -20.3448 71.4950 main 1428 1406 P_____________ SH132020 -20.3448 71.4950 TD 25 1003 -1 1005 170 50 3 235
2020034S13062 2020 8 SI MM FRANCISCO 2020-02-07 00:00:00 TS -20.4000 71.3000 main 1406 1375 O_____________ jtwc_sh SH132020 -20.4000 71.3000 TD 25 1003 -1 1005 170 50 5 262
2020034S13062 2020 8 SI MM FRANCISCO 2020-02-07 03:00:00 TS -20.4151 70.9374 main 1365 1323 P_____________ SH132020 -20.4151 70.9374 TD 27 1002 -1 1006 160 50 8 270
2020034S13062 2020 8 SI MM FRANCISCO 2020-02-07 06:00:00 TS -20.4000 70.5000 main 1323 1281 O_____________ jtwc_sh SH132020 -20.4000 70.5000 TD 30 1002 -1 1007 150 50 8 271
2020034S13062 2020 8 SI MM FRANCISCO 2020-02-07 09:00:00 TS -20.3999 70.1000 main 1281 1240 P_____________ SH132020 -20.3999 70.1000 TD 27 1002 -1 1006 145 50 8 270
2020034S13062 2020 8 SI MM FRANCISCO 2020-02-07 12:00:00 TS -20.4000 69.7000 main 1240 1198 O_____________ jtwc_sh SH132020 -20.4000 69.7000 TD 25 1003 -1 1005 140 50 7 270
2020034S13062 2020 8 SI MM FRANCISCO 2020-02-07 15:00:00 TS -20.3999 69.3075 main 1198 1156 P_____________ SH132020 -20.3999 69.3075 TD 25 1004 -1 1006 152 50 8 270
2020034S13062 2020 8 SI MM FRANCISCO 2020-02-07 18:00:00 TS -20.4000 68.9000 main 1156 1115 O_____________ jtwc_sh SH132020 -20.4000 68.9000 TD 25 1005 -1 1007 165 50 8 268
2020034S13062 2020 8 SI MM FRANCISCO 2020-02-07 21:00:00 TS -20.4226 68.4276 main 1104 1063 P_____________ SH132020 -20.4226 68.4276 TD 27 1003 -1 1006 165 50 8 270
2020034S13062 2020 8 SI MM FRANCISCO 2020-02-08 00:00:00 TS -20.4000 68.0000 main 1063 1032 O_____________ jtwc_sh SH132020 -20.4000 68.0000 TD 30 1002 -1 1006 165 50 7 285
2020034S13062 2020 8 SI MM FRANCISCO 2020-02-08 03:00:00 TS -20.2424 67.6898 main 1032 1012 P_____________ SH132020 -20.2424 67.6898 TD 25 1003 -1 1006 165 50 6 303
2020034S13062 2020 8 SI MM FRANCISCO 2020-02-08 06:00:00 NR -20.1000 67.5000 main 1012 1001 O_____________ jtwc_sh SH132020 -20.1000 67.5000 DB 20 1004 -3 1006 165 50 3 296
2020034S13062 2020 8 SI MM FRANCISCO 2020-02-08 09:00:00 NR -20.1199 67.4201 main 1001 1001 P_____________ SH132020 -20.1199 67.4201 DB 20 1005 -3 1006 165 50 1 223
2020034S13062 2020 8 SI MM FRANCISCO 2020-02-08 12:00:00 NR -20.2000 67.4000 main 1001 1001 O_____________ jtwc_sh SH132020 -20.2000 67.4000 DB 20 1007 -3 1006 165 50 1 203
2020034S13062 2020 8 SI MM FRANCISCO 2020-02-08 15:00:00 NR -20.2350 67.3650 main 1001 990 P_____________ SH132020 -20.2350 67.3650 DB 22 1006 -3 1007 160 50 1 223
2020034S13062 2020 8 SI MM FRANCISCO 2020-02-08 18:00:00 TS -20.3000 67.3000 main 990 979 O_____________ jtwc_sh SH132020 -20.3000 67.3000 TD 25 1005 -1 1008 155 50 3 225
2020034S13062 2020 8 SI MM FRANCISCO 2020-02-08 21:00:00 TS -20.4350 67.1501 main 979 958 P_____________ SH132020 -20.4350 67.1501 TD 22 1004 -1 1007 160 50 4 223
2020034S13062 2020 8 SI MM FRANCISCO 2020-02-09 00:00:00 NR -20.6000 67.0000 main 958 958 O_____________ jtwc_sh SH132020 -20.6000 67.0000 DB 20 1004 -3 1006 165 50 3 209
2020034S13062 2020 8 SI MM FRANCISCO 2020-02-09 03:00:00 NR -20.7349 66.9723 main 959 948 P_____________ SH132020 -20.7349 66.9723 DB 20 1004 -3 1006 165 50 3 197
2020034S13062 2020 8 SI MM FRANCISCO 2020-02-09 06:00:00 NR -20.9000 66.9000 main 949 919 O_____________ jtwc_sh SH132020 -20.9000 66.9000 DB 20 1004 -3 1006 165 50 5 219
2020034S13062 2020 8 SI MM FRANCISCO 2020-02-09 09:00:00 NR -21.1276 66.6301 main 919 891 P_____________ SH132020 -21.1276 66.6301 DB 20 1005 -3 1006 165 50 8 228
2020034S13062 2020 8 SI MM FRANCISCO 2020-02-09 12:00:00 NR -21.4000 66.3000 main 891 873 O_____________ jtwc_sh SH132020 -21.4000 66.3000 DB 20 1006 -3 1006 165 50 8 221
2020034S13062 2020 8 SI MM FRANCISCO 2020-02-09 15:00:00 NR -21.7298 66.0650 main 875 850 P_____________ SH132020 -21.7298 66.0650 DB 22 1005 -3 1006 160 50 8 218
2020034S13062 2020 8 SI MM FRANCISCO 2020-02-09 18:00:00 TS -22.0000 65.8000 main 850 822 O_____________ jtwc_sh SH132020 -22.0000 65.8000 TD 25 1005 -1 1007 155 50 7 237
2020034S13062 2020 8 SI MM FRANCISCO 2020-02-09 21:00:00 TS -22.0947 65.4598 main 822 772 P_____________ SH132020 -22.0947 65.4598 TD 25 1004 -1 1006 152 50 7 262
2020034S13062 2020 8 SI MM FRANCISCO 2020-02-10 00:00:00 TS -22.1000 65.0000 main 772 712 O_____________ jtwc_sh SH132020 -22.1000 65.0000 TD 25 1004 -1 1005 150 50 10 268
2020034S13062 2020 8 SI MM FRANCISCO 2020-02-10 03:00:00 TS -22.1299 64.4027 main 712 643 P_____________ SH132020 -22.1299 64.4027 TD 27 1002 -1 1005 150 50 12 270
2020034S13062 2020 8 SI MM FRANCISCO 2020-02-10 06:00:00 TS -22.1000 63.7000 main 643 571 O_____________ jtwc_sh SH132020 -22.1000 63.7000 TD 30 1000 -1 1005 150 50 14 274
2020034S13062 2020 8 SI MM FRANCISCO 2020-02-10 09:00:00 TS -22.0250 62.9505 main 571 486 P_____________ SH132020 -22.0250 62.9505 TD 30 1000 -1 1005 150 50 14 282
2020034S13062 2020 8 SI MM FRANCISCO 2020-02-10 12:00:00 TS -21.8000 62.2000 main 486 413 O_____________ jtwc_sh SH132020 -21.8000 62.2000 TD 30 1001 -1 1005 150 50 15 298
2020034S13062 2020 8 SI MM FRANCISCO 2020-02-10 15:00:00 TS -21.3371 61.5346 main 400 327 P_____________ SH132020 -21.3371 61.5346 TD 27 1002 -1 1005 150 50 16 310
2020034S13062 2020 8 SI MM FRANCISCO 2020-02-10 18:00:00 TS -20.8000 60.9000 main 327 250 O_____________ jtwc_sh SH132020 -20.8000 60.9000 TD 25 1004 -1 1005 150 50 16 309
2020034S13062 2020 8 SI MM FRANCISCO 2020-02-10 21:00:00 TS -20.3477 60.2049 main 250 190 P_____________ SH132020 -20.3477 60.2049 TD 25 1004 -1 1005 150 45 15 303
2020034S13062 2020 8 SI MM FRANCISCO 2020-02-11 00:00:00 TS -20.0000 59.6000 main 190 162 O_____________ jtwc_sh SH132020 -20.0000 59.6000 TD 25 1004 -1 1005 150 40 11 300
2020034S13062 2020 8 SI MM FRANCISCO 2020-02-11 03:00:00 TS -19.8269 59.2358 main 156 133 P_____________ SH132020 -19.8269 59.2358 TD 25 1004 -1 1005 150 40 7 295
2020034S13062 2020 8 SI MM FRANCISCO 2020-02-11 06:00:00 TS -19.7000 58.9000 main 133 99 O_____________ jtwc_sh SH132020 -19.7000 58.9000 TD 25 1004 -1 1006 150 40 9 295
2020034S13062 2020 8 SI MM FRANCISCO 2020-02-11 09:00:00 TS -19.4502 58.3647 main 99 91 P_____________ SH132020 -19.4502 58.3647 TD 25 1003 -1 1005 152 40 12 296
2020034S13062 2020 8 SI MM FRANCISCO 2020-02-11 12:00:00 TS -19.2000 57.8000 main 101 100 O_____________ jtwc_sh SH132020 -19.2000 57.8000 TD 25 1002 -1 1004 155 40 10 293
2020034S13062 2020 8 SI MM FRANCISCO 2020-02-11 15:00:00 TS -19.0420 57.3654 main 123 123 P_____________ SH132020 -19.0420 57.3654 TD 22 1003 -1 1004 152 37 9 289
2020034S13062 2020 8 SI MM FRANCISCO 2020-02-11 18:00:00 NR -18.9000 56.9000 main 148 148 O_____________ jtwc_sh SH132020 -18.9000 56.9000 DB 20 1004 -3 1004 150 35 11 288
2020034S13062 2020 8 SI MM FRANCISCO 2020-02-11 21:00:00 NR -18.6928 56.2497 main 207 207 P_____________ SH132020 -18.6928 56.2497 DB 20 1004 -3 1004 150 35 13 288
2020034S13062 2020 8 SI MM FRANCISCO 2020-02-12 00:00:00 NR -18.5000 55.6000 main 267 267 O_____________ jtwc_sh SH132020 -18.5000 55.6000 DB 20 1004 -3 1004 150 35 11 287
2020034S13062 2020 8 SI MM FRANCISCO 2020-02-12 03:00:00 NR -18.3770 55.1427 main 291 291 P_____________ SH132020 -18.3770 55.1427 DB 20 1004 -3 1004 150 35 9 283
2020034S13062 2020 8 SI MM FRANCISCO 2020-02-12 06:00:00 NR -18.3000 54.7000 main 308 308 O_____________ jtwc_sh SH132020 -18.3000 54.7000 DB 20 1005 -3 1005 150 35 10 278
2020034S13062 2020 8 SI MM FRANCISCO 2020-02-12 09:00:00 NR -18.2349 54.1300 main 337 337 P_____________ SH132020 -18.2349 54.1300 DB 20 1005 -3 1005 150 35 11 275
2020034S13062 2020 8 SI MM FRANCISCO 2020-02-12 12:00:00 NR -18.2000 53.5000 main 365 353 O_____________ jtwc_sh SH132020 -18.2000 53.5000 DB 20 1005 -3 1005 150 35 13 272
2020034S13062 2020 8 SI MM FRANCISCO 2020-02-12 15:00:00 NR -18.2002 52.8126 main 353 291 P_____________ SH132020 -18.2002 52.8126 DB 20 1006 -3 1006 147 35 12 270
2020034S13062 2020 8 SI MM FRANCISCO 2020-02-12 18:00:00 NR -18.2000 52.2000 main 291 249 O_____________ jtwc_sh SH132020 -18.2000 52.2000 DB 20 1008 -3 1008 145 35 10 273
2020034S13062 2020 8 SI MM FRANCISCO 2020-02-12 21:00:00 NR -18.1497 51.7975 main 247 216 P_____________ SH132020 -18.1497 51.7975 DB 22 1007 -3 1008 152 35 7 279
2020034S13062 2020 8 SI MM FRANCISCO 2020-02-13 00:00:00 TS -18.1000 51.5000 main 216 185 O_____________ jtwc_sh SH132020 -18.1000 51.5000 TD 25 1006 -1 1008 160 35 6 276
2020034S13062 2020 8 SI MM FRANCISCO 2020-02-13 03:00:00 TS -18.0849 51.1850 main 185 154 P_____________ SH132020 -18.0849 51.1850 TD 30 1004 -1 1008 152 37 6 270
2020034S13062 2020 8 SI MM FRANCISCO 2020-02-13 06:00:00 TS -18.1000 50.9000 main 154 124 O_____________ jtwc_sh SH132020 -18.1000 50.9000 TS 35 1002 0 50 50 1008 145 40 5 265
2020034S13062 2020 8 SI MM FRANCISCO 2020-02-13 09:00:00 TS -18.1350 50.6275 main 124 105 P_____________ SH132020 -18.1350 50.6275 TS 35 1002 0 50 50 1008 150 40 5 258
2020034S13062 2020 8 SI MM FRANCISCO 2020-02-13 12:00:00 TS -18.2000 50.4000 main 105 85 O_____________ jtwc_sh SH132020 -18.2000 50.4000 TS 35 1002 0 50 50 1009 155 40 4 247
2020034S13062 2020 8 SI MM FRANCISCO 2020-02-13 15:00:00 TS -18.2924 50.2350 main 85 77 P_____________ SH132020 -18.2924 50.2350 TS 37 1003 0 40 40 1010 160 30 3 235
2020034S13062 2020 8 SI MM FRANCISCO 2020-02-13 18:00:00 TS -18.4000 50.1000 main 77 62 O_____________ jtwc_sh SH132020 -18.4000 50.1000 TS 40 1005 0 35 30 30 1012 165 20 4 234
2020034S13062 2020 8 SI MM FRANCISCO 2020-02-13 21:00:00 TS -18.5000 49.9350 main 62 57 P_____________ SH132020 -18.5000 49.9350 TS 40 1004 0 37 37 37 1011 172 20 3 235
2020034S13062 2020 8 SI MM FRANCISCO 2020-02-14 00:00:00 TS -18.6000 49.8000 main 57 52 O_____________ jtwc_sh SH132020 -18.6000 49.8000 TS 40 1003 0 35 40 45 45 1010 180 20 3 224
2020034S13062 2020 8 SI MM FRANCISCO 2020-02-14 03:00:00 TS -18.7000 49.7350 main 52 52 P_____________ SH132020 -18.7000 49.7350 TS 40 1003 0 40 45 47 47 1010 180 20 2 207
2020034S13062 2020 8 SI MM FRANCISCO 2020-02-14 06:00:00 TS -18.8000 49.7000 main 53 53 O_____________ jtwc_sh SH132020 -18.8000 49.7000 TS 40 1003 0 45 50 50 50 1010 180 20 2 203
2020034S13062 2020 8 SI MM FRANCISCO 2020-02-14 09:00:00 TS -18.9000 49.6500 main 57 47 P_____________ SH132020 -18.9000 49.6500 TS 37 1004 0 40 45 42 42 1010 180 20 2 207
2020034S13062 2020 8 SI MM FRANCISCO 2020-02-14 12:00:00 TS -19.0000 49.6000 main 52 52 O_____________ jtwc_sh SH132020 -19.0000 49.6000 TS 35 1005 0 35 40 35 35 1010 180 20 2 205
2020034S13062 2020 8 SI MM FRANCISCO 2020-02-14 15:00:00 TS -19.0925 49.5575 main 53 43 P_____________ SH132020 -19.0925 49.5575 TS 35 1005 0 40 45 37 37 1010 180 20 2 207
2020034S13062 2020 8 SI MM FRANCISCO 2020-02-14 18:00:00 TS -19.2000 49.5000 main 47 43 O_____________ jtwc_sh SH132020 -19.2000 49.5000 TS 35 1005 0 45 50 40 40 1010 180 20 3 206
2020034S13062 2020 8 SI MM FRANCISCO 2020-02-14 21:00:00 TS -19.3274 49.4299 main 43 38 P_____________ SH132020 -19.3274 49.4299 TS 32 1005 -1 1010 180 20 4 212
2020034S13062 2020 8 SI MM FRANCISCO 2020-02-15 00:00:00 TS -19.5000 49.3000 main 43 31 O_____________ jtwc_sh SH132020 -19.5000 49.3000 TD 30 1005 -1 1010 180 20 6 219
2020034S13062 2020 8 SI MM FRANCISCO 2020-02-15 03:00:00 TS -19.7651 49.0577 main 31 0 P_____________ SH132020 -19.7651 49.0577 TD 30 1006 -1 1011 140 20 7 223
2020034S13062 2020 8 SI MM FRANCISCO 2020-02-15 06:00:00 TS -20.0000 48.8000 main 0 0 O_____________ jtwc_sh SH132020 -20.0000 48.8000 TD 30 1007 -1 1012 100 20 5 231
2020034S13062 2020 8 SI MM FRANCISCO 2020-02-15 09:00:00 TS -20.0875 48.6274 main 0 0 P_____________ SH132020 -20.0875 48.6274 TD 27 1007 -1 1011 107 20 3 250
2020034S13062 2020 8 SI MM FRANCISCO 2020-02-15 12:00:00 TS -20.1000 48.5000 main 0 0 O_____________ jtwc_sh SH132020 -20.1000 48.5000 TD 25 1007 -1 1010 115 20 2 267
2020034S13062 2020 8 SI MM FRANCISCO 2020-02-15 15:00:00 TS -20.1000 48.3950 main 0 0 P_____________ SH132020 -20.1000 48.3950 TD 25 1005 -1 1010 115 20 2 270
2020034S13062 2020 8 SI MM FRANCISCO 2020-02-15 18:00:00 TS -20.1000 48.3000 main 0 O_____________ jtwc_sh SH132020 -20.1000 48.3000 TD 25 1004 -1 1010 115 20 2 270

About IBTrACS Database

This database is a web-friendly format of International Best Track Archive for Climate Stewardship (IBTrACS), a global best track data archive curated by NOAA dating back to 1842.

Updated: 2022-01-14